createdAt,value
2019-01-05T00:00:35.785Z,8.85
2019-01-05T00:03:33.328Z,8.91
2019-01-05T00:06:24.541Z,8.93
2019-01-05T00:09:19.607Z,8.95
2019-01-05T00:12:08.195Z,9.03
2019-01-05T00:15:03.018Z,9.02
2019-01-05T00:18:01.809Z,9.04
2019-01-05T00:20:48.754Z,9.12
2019-01-05T00:23:49.049Z,9.11
2019-01-05T00:26:40.936Z,9.05
2019-01-05T00:29:20.989Z,9.04
2019-01-05T00:32:42.206Z,9.08
2019-01-05T00:35:43.035Z,9.08
2019-01-05T00:38:39.941Z,9.08
2019-01-05T00:41:46.366Z,9.16
2019-01-05T00:44:48.341Z,9.12
2019-01-05T00:47:42.551Z,9.06
2019-01-05T00:50:33.938Z,9.03
2019-01-05T00:53:21.143Z,9.02
2019-01-05T00:56:09.726Z,9.04
2019-01-05T00:58:57.509Z,9.04
2019-01-05T01:01:49.197Z,9.09
2019-01-05T01:04:48.582Z,9.03
2019-01-05T01:07:49.138Z,9.04
2019-01-05T01:10:33.094Z,9.00
2019-01-05T01:13:30.725Z,9.04
2019-01-05T01:16:24.272Z,9.07
2019-01-05T01:19:12.448Z,9.04
2019-01-05T01:21:57.525Z,9.14
2019-01-05T01:24:55.065Z,9.13
2019-01-05T01:27:50.315Z,9.02
2019-01-05T01:30:47.959Z,9.12
2019-01-05T01:33:36.374Z,9.10
2019-01-05T01:36:24.875Z,9.11
2019-01-05T01:39:14.287Z,9.14
2019-01-05T01:42:20.897Z,9.07
2019-01-05T01:45:07.484Z,9.14
2019-01-05T01:48:03.742Z,9.11
2019-01-05T01:50:51.126Z,9.08
2019-01-05T01:53:43.302Z,9.10
2019-01-05T01:56:33.252Z,9.14
2019-01-05T01:59:25.486Z,9.12
2019-01-05T02:02:21.471Z,9.12
2019-01-05T02:05:10.743Z,9.20
2019-01-05T02:08:10.994Z,9.11
2019-01-05T02:11:12.244Z,9.13
2019-01-05T02:14:06.546Z,9.15
2019-01-05T02:17:03.554Z,9.08
2019-01-05T02:20:32.145Z,9.06
2019-01-05T02:24:03.771Z,9.14
2019-01-05T02:27:31.372Z,9.13
2019-01-05T02:30:54.499Z,9.21
2019-01-05T02:34:17.314Z,9.24
2019-01-05T02:37:42.120Z,9.35
2019-01-05T02:41:30.997Z,9.36
2019-01-05T02:44:53.096Z,9.38
2019-01-05T02:48:27.057Z,9.40
2019-01-05T02:52:11.417Z,9.41
2019-01-05T02:55:44.588Z,9.33
2019-01-05T02:59:20.980Z,9.33
2019-01-05T03:02:49.472Z,9.32
2019-01-05T03:06:21.300Z,9.27
2019-01-05T03:10:03.673Z,9.29
2019-01-05T03:13:54.460Z,9.30
2019-01-05T03:17:10.154Z,9.34
2019-01-05T03:20:18.918Z,9.39
2019-01-05T03:24:11.962Z,9.40
2019-01-05T03:27:42.622Z,9.25
2019-01-05T03:31:44.613Z,9.28
2019-01-05T03:35:29.048Z,9.40
2019-01-05T03:38:57.681Z,9.43
2019-01-05T03:42:37.467Z,9.41
2019-01-05T03:46:02.582Z,9.40
2019-01-05T03:49:35.236Z,9.41
2019-01-05T03:53:19.488Z,9.42
2019-01-05T03:56:54.207Z,9.43
2019-01-05T04:00:25.028Z,9.54
2019-01-05T04:03:51.332Z,9.57
2019-01-05T04:07:21.045Z,9.45
2019-01-05T04:10:39.427Z,9.50
2019-01-05T04:14:31.073Z,9.49
2019-01-05T04:18:01.170Z,9.51
2019-01-05T04:21:20.317Z,9.50
2019-01-05T04:24:51.059Z,9.46
2019-01-05T04:28:27.611Z,9.42
2019-01-05T04:32:05.495Z,9.54
2019-01-05T04:35:49.629Z,9.52
2019-01-05T04:39:19.661Z,9.46
2019-01-05T04:43:03.141Z,9.50
2019-01-05T04:46:26.709Z,9.48
2019-01-05T04:49:56.422Z,9.47
2019-01-05T04:53:45.576Z,9.51
2019-01-05T04:57:12.407Z,9.43
2019-01-05T05:00:46.541Z,9.45
2019-01-05T05:04:13.445Z,9.42
2019-01-05T05:07:41.797Z,9.40
2019-01-05T05:11:30.552Z,9.43
2019-01-05T05:15:08.425Z,9.44
2019-01-05T05:18:30.205Z,9.54
2019-01-05T05:21:52.670Z,9.48
2019-01-05T05:25:29.406Z,9.57
2019-01-05T05:29:20.812Z,9.47
2019-01-05T05:32:50.525Z,9.48
2019-01-05T05:36:27.473Z,9.47
2019-01-05T05:39:56.921Z,9.39
2019-01-05T05:43:34.494Z,9.45
2019-01-05T05:47:05.520Z,9.47
2019-01-05T05:50:49.780Z,9.49
2019-01-05T05:54:05.299Z,9.46
2019-01-05T05:57:30.243Z,9.49
2019-01-05T06:01:01.019Z,9.41
2019-01-05T06:04:20.361Z,9.40
2019-01-05T06:07:58.448Z,9.49
2019-01-05T06:11:37.747Z,9.49
2019-01-05T06:15:00.101Z,9.42
2019-01-05T06:18:36.345Z,9.48
2019-01-05T06:22:12.933Z,9.42
2019-01-05T06:25:35.319Z,9.50
2019-01-05T06:29:25.019Z,9.39
2019-01-05T06:32:57.574Z,9.38
2019-01-05T06:36:23.157Z,9.51
2019-01-05T06:39:46.258Z,9.53
2019-01-05T06:43:33.043Z,9.57
2019-01-05T06:47:22.759Z,9.65
2019-01-05T06:50:49.041Z,9.67
2019-01-05T06:54:12.535Z,9.71
2019-01-05T06:57:53.644Z,9.75
2019-01-05T07:01:23.634Z,9.70
2019-01-05T07:04:47.475Z,9.72
2019-01-05T07:08:23.231Z,9.80
2019-01-05T07:11:52.155Z,9.77
2019-01-05T07:15:27.378Z,9.74
2019-01-05T07:18:46.410Z,9.82
2019-01-05T07:22:15.949Z,9.68
2019-01-05T07:26:08.262Z,9.75
2019-01-05T07:29:41.509Z,9.70
2019-01-05T07:33:25.599Z,9.69
2019-01-05T07:36:48.193Z,9.74
2019-01-05T07:40:15.166Z,9.76
2019-01-05T07:44:11.042Z,9.82
2019-01-05T07:47:37.045Z,9.84
2019-01-05T07:51:24.278Z,9.79
2019-01-05T07:54:46.274Z,9.89
2019-01-05T07:58:39.720Z,9.91
2019-01-05T08:02:11.963Z,9.94
2019-01-05T08:06:02.205Z,9.84
2019-01-05T08:09:40.332Z,9.88
2019-01-05T08:13:02.920Z,10.01
2019-01-05T08:16:26.114Z,10.06
2019-01-05T08:20:16.271Z,10.10
2019-01-05T08:23:42.375Z,9.97
2019-01-05T08:27:13.314Z,10.07
2019-01-05T08:30:31.969Z,10.13
2019-01-05T08:34:34.165Z,10.03
2019-01-05T08:38:10.012Z,10.05
2019-01-05T08:41:52.873Z,10.13
2019-01-05T08:45:16.369Z,10.19
2019-01-05T08:48:51.140Z,10.09
2019-01-05T08:52:29.443Z,10.12
2019-01-05T08:56:32.179Z,10.15
2019-01-05T08:59:57.349Z,10.15
2019-01-05T09:03:36.628Z,10.07
2019-01-05T09:07:19.356Z,10.12
2019-01-05T09:10:34.283Z,10.15
2019-01-05T09:13:55.404Z,10.26
2019-01-05T09:17:44.414Z,10.38
2019-01-05T09:21:26.383Z,10.46
2019-01-05T09:24:48.806Z,10.48
2019-01-05T09:28:33.714Z,10.57
2019-01-05T09:32:03.661Z,10.57
2019-01-05T09:35:34.384Z,10.54
2019-01-05T09:38:55.637Z,10.52
2019-01-05T09:42:14.003Z,10.51
2019-01-05T09:46:00.016Z,10.39
2019-01-05T09:49:39.869Z,10.52
2019-01-05T09:53:39.551Z,10.52
2019-01-05T09:57:02.870Z,10.54
2019-01-05T10:00:30.414Z,10.51
2019-01-05T10:04:08.529Z,10.58
2019-01-05T10:07:57.317Z,10.59
2019-01-05T10:11:29.743Z,10.58
2019-01-05T10:14:53.470Z,10.50
2019-01-05T10:18:25.809Z,10.39
2019-01-05T10:21:45.740Z,10.47
2019-01-05T10:25:08.213Z,10.47
2019-01-05T10:28:52.619Z,10.57
2019-01-05T10:32:20.559Z,10.64
2019-01-05T10:35:53.654Z,10.57
2019-01-05T10:39:21.320Z,10.70
2019-01-05T10:43:08.289Z,10.76
2019-01-05T10:46:54.034Z,10.89
2019-01-05T10:50:35.398Z,10.97
2019-01-05T10:54:01.652Z,10.74
2019-01-05T10:57:54.696Z,10.71
2019-01-05T11:01:05.814Z,10.75
2019-01-05T11:04:44.413Z,10.88
2019-01-05T11:08:28.710Z,10.88
2019-01-05T11:12:06.347Z,10.78
2019-01-05T11:15:52.305Z,10.75
2019-01-05T11:19:31.404Z,10.81
2019-01-05T11:23:01.833Z,10.77
2019-01-05T11:26:39.757Z,10.76
2019-01-05T11:30:29.786Z,10.69
2019-01-05T11:34:14.424Z,10.82
2019-01-05T11:37:49.741Z,10.87
2019-01-05T11:41:33.459Z,10.87
2019-01-05T11:45:16.164Z,10.98
2019-01-05T11:48:58.245Z,11.10
2019-01-05T11:52:23.327Z,11.08
2019-01-05T11:55:57.159Z,11.24
2019-01-05T11:59:14.726Z,11.18
2019-01-05T12:02:33.697Z,11.07
2019-01-05T12:05:58.433Z,11.09
2019-01-05T12:09:22.394Z,11.12
2019-01-05T12:12:44.398Z,11.20
2019-01-05T12:16:22.049Z,11.16
2019-01-05T12:20:21.753Z,11.09
2019-01-05T12:24:00.901Z,11.14
2019-01-05T12:27:52.693Z,11.17
2019-01-05T12:31:32.162Z,11.14
2019-01-05T12:34:53.984Z,11.07
2019-01-05T12:38:33.728Z,10.97
2019-01-05T12:42:11.597Z,11.04
2019-01-05T12:45:25.074Z,11.17
2019-01-05T12:49:02.275Z,11.08
2019-01-05T12:52:27.854Z,11.10
2019-01-05T12:56:01.185Z,10.96
2019-01-05T12:59:58.932Z,11.00
2019-01-05T13:03:26.319Z,11.12
2019-01-05T13:07:11.972Z,11.17
2019-01-05T13:10:52.952Z,11.10
2019-01-05T13:14:43.395Z,10.98
2019-01-05T13:18:01.528Z,11.14
2019-01-05T13:21:42.202Z,11.19
2019-01-05T13:25:13.668Z,11.16
2019-01-05T13:28:28.628Z,11.14
2019-01-05T13:32:05.733Z,11.00
2019-01-05T13:35:41.338Z,10.95
2019-01-05T13:39:07.019Z,11.01
2019-01-05T13:42:30.446Z,10.99
2019-01-05T13:46:17.595Z,10.99
2019-01-05T13:49:41.139Z,11.03
2019-01-05T13:52:52.330Z,10.84
2019-01-05T13:56:01.187Z,10.93
2019-01-05T13:58:47.921Z,10.92
2019-01-05T14:01:32.927Z,10.89
2019-01-05T14:04:27.139Z,10.88
2019-01-05T14:07:30.958Z,10.68
2019-01-05T14:10:31.267Z,10.70
2019-01-05T14:13:19.676Z,10.83
2019-01-05T14:16:19.731Z,10.90
2019-01-05T14:19:20.249Z,10.91
2019-01-05T14:22:03.426Z,11.00
2019-01-05T14:25:00.733Z,10.97
2019-01-05T14:28:06.566Z,10.97
2019-01-05T14:30:58.253Z,11.04
2019-01-05T14:33:52.447Z,11.03
2019-01-05T14:36:43.948Z,11.06
2019-01-05T14:39:44.287Z,11.10
2019-01-05T14:42:32.912Z,11.11
2019-01-05T14:45:22.428Z,11.12
2019-01-05T14:48:16.971Z,11.08
2019-01-05T14:51:17.675Z,11.09
2019-01-05T14:54:02.068Z,11.12
2019-01-05T14:56:48.839Z,11.14
2019-01-05T14:59:37.219Z,11.10
2019-01-05T15:02:31.456Z,11.13
2019-01-05T15:05:18.258Z,11.05
2019-01-05T15:08:09.451Z,11.00
2019-01-05T15:11:00.722Z,10.99
2019-01-05T15:13:51.868Z,10.90
2019-01-05T15:16:40.240Z,10.91
2019-01-05T15:19:28.549Z,10.94
2019-01-05T15:22:26.107Z,10.92
2019-01-05T15:25:13.123Z,10.88
2019-01-05T15:28:01.581Z,10.84
2019-01-05T15:30:56.000Z,10.78
2019-01-05T15:33:54.052Z,10.73
2019-01-05T15:36:40.795Z,10.77
2019-01-05T15:39:47.475Z,10.76
2019-01-05T15:42:34.322Z,10.68
2019-01-05T15:45:19.304Z,10.70
2019-01-05T15:48:07.665Z,10.63
2019-01-05T15:50:54.853Z,10.68
2019-01-05T15:53:41.713Z,10.72
2019-01-05T15:56:29.084Z,10.80
2019-01-05T15:59:15.849Z,10.84
2019-01-05T16:02:19.215Z,10.79
2019-01-05T16:05:13.193Z,10.75
2019-01-05T16:08:10.830Z,10.68
2019-01-05T16:11:02.121Z,10.53
2019-01-05T16:14:02.333Z,10.51
2019-01-05T16:16:49.389Z,10.57
2019-01-05T16:19:36.323Z,10.64
2019-01-05T16:22:36.733Z,10.63
2019-01-05T16:25:31.341Z,10.61
2019-01-05T16:28:11.854Z,10.67
2019-01-05T16:31:09.259Z,10.69
2019-01-05T16:33:56.324Z,10.75
2019-01-05T16:36:53.639Z,10.81
2019-01-05T16:39:40.386Z,10.76
2019-01-05T16:42:27.296Z,10.75
2019-01-05T16:45:14.180Z,10.72
2019-01-05T16:48:05.306Z,10.68
2019-01-05T16:50:56.687Z,10.58
2019-01-05T16:54:02.155Z,10.53
2019-01-05T16:57:05.692Z,10.49
2019-01-05T16:59:52.273Z,10.43
2019-01-05T17:02:40.773Z,10.46
2019-01-05T17:05:32.110Z,10.48
2019-01-05T17:08:23.447Z,10.50
2019-01-05T17:11:10.524Z,10.53
2019-01-05T17:13:58.824Z,10.48
2019-01-05T17:16:46.002Z,10.55
2019-01-05T17:19:36.466Z,10.54
2019-01-05T17:22:21.276Z,10.56
2019-01-05T17:25:12.682Z,10.46
2019-01-05T17:28:11.123Z,10.46
2019-01-05T17:30:57.784Z,10.48
2019-01-05T17:33:44.401Z,10.50
2019-01-05T17:36:32.727Z,10.41
2019-01-05T17:39:26.535Z,10.41
2019-01-05T17:42:20.684Z,10.39
2019-01-05T17:45:07.597Z,10.42
2019-01-05T17:48:11.147Z,10.43
2019-01-05T17:50:57.694Z,10.41
2019-01-05T17:53:52.245Z,10.39
2019-01-05T17:56:43.488Z,10.37
2019-01-05T17:59:40.879Z,10.32
2019-01-05T18:02:35.354Z,10.30
2019-01-05T18:05:29.728Z,10.30
2019-01-05T18:08:27.626Z,10.36
2019-01-05T18:11:34.129Z,10.34
2019-01-05T18:14:34.068Z,10.30
2019-01-05T18:17:28.626Z,10.26
2019-01-05T18:20:15.852Z,10.28
2019-01-05T18:23:05.052Z,10.14
2019-01-05T18:25:52.014Z,10.14
2019-01-05T18:28:39.021Z,10.24
2019-01-05T18:31:37.255Z,10.24
2019-01-05T18:34:24.016Z,10.27
2019-01-05T18:37:15.462Z,10.24
2019-01-05T18:40:15.733Z,10.27
2019-01-05T18:43:13.010Z,10.19
2019-01-05T18:46:02.690Z,10.22
2019-01-05T18:48:45.647Z,10.23
2019-01-05T18:51:32.745Z,10.28
2019-01-05T18:54:19.856Z,10.20
2019-01-05T18:57:08.161Z,10.24
2019-01-05T18:59:54.589Z,10.24
2019-01-05T19:02:42.937Z,10.26
2019-01-05T19:05:29.721Z,10.14
2019-01-05T19:08:18.213Z,10.20
2019-01-05T19:11:09.791Z,10.21
2019-01-05T19:13:56.525Z,10.25
2019-01-05T19:17:03.045Z,10.27
2019-01-05T19:19:49.031Z,10.27
2019-01-05T19:22:35.664Z,10.25
2019-01-05T19:25:27.390Z,10.23
2019-01-05T19:28:15.768Z,10.10
2019-01-05T19:31:02.479Z,10.07
2019-01-05T19:34:03.498Z,10.02
2019-01-05T19:36:50.292Z,10.07
2019-01-05T19:39:50.726Z,10.07
2019-01-05T19:42:54.250Z,10.13
2019-01-05T19:45:41.371Z,10.09
2019-01-05T19:48:28.106Z,10.04
2019-01-05T19:51:14.321Z,10.06
2019-01-05T19:54:05.826Z,10.03
2019-01-05T19:57:09.467Z,10.03
2019-01-05T19:59:56.159Z,9.80
2019-01-05T20:02:43.277Z,9.77
2019-01-05T20:05:37.676Z,9.74
2019-01-05T20:08:24.685Z,9.78
2019-01-05T20:11:11.468Z,9.77
2019-01-05T20:13:59.950Z,9.72
2019-01-05T20:16:46.931Z,9.62
2019-01-05T20:19:38.754Z,9.67
2019-01-05T20:22:25.623Z,9.77
2019-01-05T20:25:14.067Z,9.77
2019-01-05T20:28:02.372Z,9.72
2019-01-05T20:30:49.278Z,9.72
2019-01-05T20:33:37.576Z,9.71
2019-01-05T20:36:24.623Z,9.70
2019-01-05T20:39:19.009Z,9.63
2019-01-05T20:42:07.394Z,9.67
2019-01-05T20:44:54.336Z,9.75
2019-01-05T20:47:58.181Z,9.78
2019-01-05T20:50:43.875Z,9.89
2019-01-05T20:53:44.478Z,9.93
2019-01-05T20:56:42.023Z,9.92
2019-01-05T20:59:33.546Z,9.84
2019-01-05T21:02:29.141Z,9.94
2019-01-05T21:05:15.872Z,9.99
2019-01-05T21:08:04.184Z,10.01
2019-01-05T21:10:59.770Z,10.03
2019-01-05T21:13:46.858Z,9.99
2019-01-05T21:16:47.756Z,9.98
2019-01-05T21:19:39.588Z,9.98
2019-01-05T21:22:43.034Z,9.86
2019-01-05T21:25:29.840Z,9.91
2019-01-05T21:28:21.602Z,9.93
2019-01-05T21:31:09.957Z,9.81
2019-01-05T21:33:57.272Z,9.86
2019-01-05T21:36:44.568Z,9.84
2019-01-05T21:39:41.875Z,9.91
2019-01-05T21:42:28.815Z,9.89
2019-01-05T21:45:15.964Z,9.88
2019-01-05T21:48:02.626Z,9.84
2019-01-05T21:50:49.894Z,9.80
2019-01-05T21:53:48.052Z,9.75
2019-01-05T21:56:34.022Z,9.67
2019-01-05T21:59:25.106Z,9.51
2019-01-05T22:02:20.387Z,9.46
2019-01-05T22:05:19.767Z,9.48
2019-01-05T22:08:14.328Z,9.55
2019-01-05T22:11:03.231Z,9.53
2019-01-05T22:13:51.774Z,9.58
2019-01-05T22:16:53.717Z,9.66
2019-01-05T22:19:40.253Z,9.69
2019-01-05T22:22:28.554Z,9.73
2019-01-05T22:25:31.962Z,9.73
2019-01-05T22:28:22.815Z,9.78
2019-01-05T22:31:11.189Z,9.77
2019-01-05T22:34:14.633Z,9.79
2019-01-05T22:37:03.077Z,9.82
2019-01-05T22:39:49.840Z,9.87
2019-01-05T22:42:53.106Z,9.81
2019-01-05T22:45:50.050Z,9.81
2019-01-05T22:48:37.156Z,9.72
2019-01-05T22:51:28.604Z,9.64
2019-01-05T22:54:15.452Z,9.46
2019-01-05T22:57:09.929Z,9.38
2019-01-05T23:00:04.555Z,9.44
2019-01-05T23:02:53.293Z,9.45
2019-01-05T23:05:37.357Z,9.38
2019-01-05T23:08:19.001Z,9.34
2019-01-05T23:11:04.724Z,9.21
2019-01-05T23:13:51.791Z,9.21
2019-01-05T23:16:40.224Z,9.21
2019-01-05T23:19:40.963Z,9.08
2019-01-05T23:22:23.644Z,9.04
2019-01-05T23:25:05.613Z,8.94
2019-01-05T23:28:06.028Z,8.96
2019-01-05T23:30:53.085Z,8.92
2019-01-05T23:33:59.498Z,8.85
2019-01-05T23:36:53.801Z,8.96
2019-01-05T23:40:00.156Z,8.88
2019-01-05T23:42:54.297Z,8.89
2019-01-05T23:45:41.647Z,8.80
2019-01-05T23:48:27.109Z,8.85
2019-01-05T23:51:18.387Z,8.76
2019-01-05T23:54:05.430Z,8.80
2019-01-05T23:56:52.341Z,8.74
2019-01-05T23:59:49.444Z,8.79
